createdAt,value
2023-01-26T00:01:16.018Z,2.48
2023-01-26T00:02:48.992Z,2.63
2023-01-26T00:04:20.564Z,2.80
2023-01-26T00:05:52.066Z,2.95
2023-01-26T00:07:23.547Z,3.06
2023-01-26T00:08:56.811Z,3.13
2023-01-26T00:10:28.294Z,3.08
2023-01-26T00:11:59.770Z,3.01
2023-01-26T00:13:31.553Z,2.93
2023-01-26T00:15:03.194Z,2.81
2023-01-26T00:16:34.689Z,2.80
2023-01-26T00:18:09.132Z,2.77
2023-01-26T00:19:40.682Z,2.78
2023-01-26T00:21:13.585Z,2.86
2023-01-26T00:22:45.046Z,2.94
2023-01-26T00:24:16.562Z,2.97
2023-01-26T00:25:48.043Z,2.99
2023-01-26T00:27:19.545Z,2.92
2023-01-26T00:28:51.468Z,2.87
2023-01-26T00:30:23.938Z,2.86
2023-01-26T00:31:55.500Z,2.90
2023-01-26T00:33:28.573Z,2.94
2023-01-26T00:35:00.057Z,2.99
2023-01-26T00:36:31.621Z,3.04
2023-01-26T00:38:03.117Z,3.07
2023-01-26T00:39:34.632Z,3.02
2023-01-26T00:41:06.157Z,3.02
2023-01-26T00:42:37.658Z,3.05
2023-01-26T00:44:09.118Z,3.03
2023-01-26T00:45:40.633Z,2.99
2023-01-26T00:47:12.892Z,2.90
2023-01-26T00:48:45.727Z,2.83
2023-01-26T00:50:17.308Z,2.78
2023-01-26T00:51:48.816Z,2.75
2023-01-26T00:53:20.270Z,2.70
2023-01-26T00:54:51.790Z,2.65
2023-01-26T00:56:23.305Z,2.58
2023-01-26T00:57:54.849Z,2.56
2023-01-26T00:59:27.727Z,2.59
2023-01-26T01:00:59.234Z,2.63
2023-01-26T01:02:30.744Z,2.62
2023-01-26T01:04:03.707Z,2.63
2023-01-26T01:05:35.289Z,2.62
2023-01-26T01:07:06.833Z,2.55
2023-01-26T01:08:38.380Z,2.52
2023-01-26T01:10:11.507Z,2.51
2023-01-26T01:11:43.811Z,2.49
2023-01-26T01:13:15.402Z,2.44
2023-01-26T01:14:46.902Z,2.43
2023-01-26T01:16:18.912Z,2.42
2023-01-26T01:17:50.533Z,2.41
2023-01-26T01:19:23.756Z,2.38
2023-01-26T01:20:55.237Z,2.40
2023-01-26T01:22:26.690Z,2.40
2023-01-26T01:23:58.277Z,2.43
2023-01-26T01:25:30.403Z,2.44
2023-01-26T01:27:01.857Z,2.41
2023-01-26T01:28:34.038Z,2.41
2023-01-26T01:30:08.085Z,2.38
2023-01-26T01:31:41.227Z,2.35
2023-01-26T01:33:12.777Z,2.27
2023-01-26T01:34:46.534Z,2.24
2023-01-26T01:36:18.111Z,2.22
2023-01-26T01:37:49.636Z,2.20
2023-01-26T01:39:21.177Z,2.16
2023-01-26T01:40:52.962Z,2.17
2023-01-26T01:42:25.079Z,2.17
2023-01-26T01:44:11.443Z,2.25
2023-01-26T01:45:43.735Z,2.24
2023-01-26T01:47:19.736Z,2.21
2023-01-26T01:48:53.662Z,2.21
2023-01-26T01:50:27.335Z,2.17
2023-01-26T01:52:01.930Z,2.15
2023-01-26T01:53:35.245Z,2.16
2023-01-26T01:55:08.902Z,2.15
2023-01-26T01:56:42.445Z,2.18
2023-01-26T01:58:14.506Z,2.15
2023-01-26T01:59:48.738Z,2.14
2023-01-26T02:01:20.638Z,2.13
2023-01-26T02:03:14.059Z,2.13
2023-01-26T02:04:45.720Z,2.21
2023-01-26T02:06:21.081Z,2.26
2023-01-26T02:07:52.842Z,2.26
2023-01-26T02:09:44.813Z,2.25
2023-01-26T02:11:17.052Z,2.28
2023-01-26T02:12:50.499Z,2.29
2023-01-26T02:14:23.264Z,2.28
2023-01-26T02:15:54.801Z,2.27
2023-01-26T02:17:26.429Z,2.28
2023-01-26T02:18:58.087Z,2.29
2023-01-26T02:20:32.523Z,2.31
2023-01-26T02:22:08.481Z,2.32
2023-01-26T02:23:48.670Z,2.33
2023-01-26T02:25:27.187Z,2.37
2023-01-26T02:27:00.161Z,2.42
2023-01-26T02:28:32.996Z,2.44
2023-01-26T02:30:05.858Z,2.41
2023-01-26T02:31:38.222Z,2.41
2023-01-26T02:33:14.753Z,2.45
2023-01-26T02:34:46.238Z,2.48
2023-01-26T02:36:19.834Z,2.60
2023-01-26T02:37:51.411Z,2.69
2023-01-26T02:39:26.827Z,2.66
2023-01-26T02:40:59.981Z,2.59
2023-01-26T02:42:38.844Z,2.57
2023-01-26T02:44:11.774Z,2.53
2023-01-26T02:45:43.312Z,2.52
2023-01-26T02:47:15.828Z,2.51
2023-01-26T02:49:06.324Z,2.45
2023-01-26T02:50:37.884Z,2.41
2023-01-26T02:52:09.513Z,2.41
2023-01-26T02:53:41.039Z,2.45
2023-01-26T02:55:30.742Z,2.48
2023-01-26T02:57:02.695Z,2.48
2023-01-26T02:58:35.580Z,2.47
2023-01-26T03:00:08.313Z,2.47
2023-01-26T03:01:39.815Z,2.42
2023-01-26T03:03:13.756Z,2.40
2023-01-26T03:04:45.305Z,2.39
2023-01-26T03:06:18.425Z,2.40
2023-01-26T03:07:49.961Z,2.42
2023-01-26T03:09:23.817Z,2.41
2023-01-26T03:10:57.084Z,2.40
2023-01-26T03:12:28.577Z,2.40
2023-01-26T03:14:02.374Z,2.42
2023-01-26T03:15:43.550Z,2.43
2023-01-26T03:17:16.613Z,2.45
2023-01-26T03:19:03.279Z,2.47
2023-01-26T03:20:53.996Z,2.48
2023-01-26T03:22:44.263Z,2.47
2023-01-26T03:24:34.664Z,2.50
2023-01-26T03:26:28.111Z,2.50
2023-01-26T03:27:59.837Z,2.53
2023-01-26T03:29:33.770Z,2.51
2023-01-26T03:31:06.748Z,2.50
2023-01-26T03:32:38.314Z,2.54
2023-01-26T03:34:13.704Z,2.56
2023-01-26T03:35:46.377Z,2.58
2023-01-26T03:37:22.579Z,2.60
2023-01-26T03:39:06.025Z,2.59
2023-01-26T03:40:57.183Z,2.62
2023-01-26T03:42:47.473Z,2.61
2023-01-26T03:44:37.964Z,2.61
2023-01-26T03:46:29.294Z,2.58
2023-01-26T03:48:23.227Z,2.61
2023-01-26T03:50:13.341Z,2.61
2023-01-26T03:52:03.847Z,2.68
2023-01-26T03:53:54.056Z,2.75
2023-01-26T03:55:44.073Z,2.78
2023-01-26T03:57:16.919Z,2.76
2023-01-26T03:58:49.509Z,2.77
2023-01-26T04:00:21.571Z,2.79
2023-01-26T04:02:14.749Z,2.81
2023-01-26T04:04:08.134Z,2.87
2023-01-26T04:06:16.478Z,2.92
2023-01-26T04:08:10.899Z,2.82
2023-01-26T04:09:42.513Z,2.65
2023-01-26T04:11:14.159Z,2.57
2023-01-26T04:12:48.024Z,2.54
2023-01-26T04:14:49.261Z,2.45
2023-01-26T04:16:40.638Z,2.46
2023-01-26T04:18:32.006Z,2.62
2023-01-26T04:20:23.424Z,2.81
2023-01-26T04:21:55.368Z,2.95
2023-01-26T04:23:28.829Z,2.96
2023-01-26T04:25:00.545Z,2.97
2023-01-26T04:26:34.978Z,3.01
2023-01-26T04:28:07.710Z,3.06
2023-01-26T04:29:39.290Z,3.14
2023-01-26T04:31:11.771Z,3.16
2023-01-26T04:32:44.060Z,3.18
2023-01-26T04:34:17.097Z,3.21
2023-01-26T04:35:48.613Z,3.22
2023-01-26T04:37:20.442Z,3.30
2023-01-26T04:38:52.595Z,3.40
2023-01-26T04:40:25.421Z,3.49
2023-01-26T04:41:57.042Z,3.57
2023-01-26T04:43:28.607Z,3.60
2023-01-26T04:45:00.562Z,3.58
2023-01-26T04:46:33.298Z,3.57
2023-01-26T04:48:06.232Z,3.49
2023-01-26T04:49:39.130Z,3.48
2023-01-26T04:51:12.878Z,3.47
2023-01-26T04:52:44.606Z,3.47
2023-01-26T04:54:16.121Z,3.42
2023-01-26T04:55:49.349Z,3.37
2023-01-26T04:57:21.152Z,3.28
2023-01-26T04:58:55.577Z,3.21
2023-01-26T05:00:28.466Z,3.13
2023-01-26T05:02:00.232Z,3.05
2023-01-26T05:03:32.495Z,3.05
2023-01-26T05:05:06.269Z,3.01
2023-01-26T05:06:38.428Z,2.99
2023-01-26T05:08:10.336Z,2.96
2023-01-26T05:09:41.853Z,2.96
2023-01-26T05:11:48.956Z,3.03
2023-01-26T05:13:47.320Z,3.11
2023-01-26T05:15:28.338Z,3.18
2023-01-26T05:17:28.456Z,3.20
2023-01-26T05:19:12.906Z,3.17
2023-01-26T05:20:57.254Z,3.08
2023-01-26T05:22:34.163Z,3.04
2023-01-26T05:24:24.323Z,2.95
2023-01-26T05:26:04.637Z,2.97
2023-01-26T05:27:44.040Z,3.02
2023-01-26T05:29:15.620Z,3.04
2023-01-26T05:30:47.196Z,3.08
2023-01-26T05:32:19.033Z,3.15
2023-01-26T05:33:50.673Z,3.19
2023-01-26T05:35:27.658Z,3.15
2023-01-26T05:37:00.537Z,3.09
2023-01-26T05:38:32.132Z,3.07
2023-01-26T05:40:04.091Z,3.04
2023-01-26T05:41:35.715Z,3.08
2023-01-26T05:43:22.171Z,3.02
2023-01-26T05:45:12.602Z,3.06
2023-01-26T05:46:44.858Z,3.09
2023-01-26T05:48:17.162Z,3.17
2023-01-26T05:49:50.292Z,3.25
2023-01-26T05:51:27.156Z,3.18
2023-01-26T05:53:00.694Z,3.12
2023-01-26T05:54:32.537Z,3.09
2023-01-26T05:56:04.897Z,3.15
2023-01-26T05:57:38.446Z,3.18
2023-01-26T05:59:12.018Z,3.15
2023-01-26T06:00:43.509Z,3.12
2023-01-26T06:02:22.103Z,3.07
2023-01-26T06:03:54.541Z,3.01
2023-01-26T06:05:27.214Z,2.92
2023-01-26T06:07:00.660Z,2.88
2023-01-26T06:08:37.834Z,2.84
2023-01-26T06:10:35.577Z,2.79
2023-01-26T06:12:31.545Z,2.73
2023-01-26T06:14:07.310Z,2.77
2023-01-26T06:15:39.248Z,2.86
2023-01-26T06:17:10.788Z,2.89
2023-01-26T06:18:42.471Z,2.85
2023-01-26T06:20:15.001Z,2.82
2023-01-26T06:21:53.455Z,2.78
2023-01-26T06:23:26.500Z,2.75
2023-01-26T06:25:02.725Z,2.80
2023-01-26T06:26:34.613Z,2.86
2023-01-26T06:28:06.109Z,2.90
2023-01-26T06:29:38.681Z,3.01
2023-01-26T06:31:10.917Z,3.08
2023-01-26T06:32:43.454Z,3.18
2023-01-26T06:34:15.371Z,3.30
2023-01-26T06:35:48.052Z,3.34
2023-01-26T06:37:19.920Z,3.42
2023-01-26T06:38:54.481Z,3.47
2023-01-26T06:40:28.972Z,3.47
2023-01-26T06:42:01.977Z,3.47
2023-01-26T06:43:34.199Z,3.46
2023-01-26T06:45:06.245Z,3.45
2023-01-26T06:46:37.773Z,3.43
2023-01-26T06:48:09.669Z,3.46
2023-01-26T06:49:41.179Z,3.48
2023-01-26T06:51:32.857Z,3.48
2023-01-26T06:53:25.117Z,3.52
2023-01-26T06:55:16.673Z,3.65
2023-01-26T06:56:58.141Z,3.71
2023-01-26T06:58:48.086Z,3.69
2023-01-26T07:00:40.751Z,3.65
2023-01-26T07:02:19.990Z,3.57
2023-01-26T07:03:52.339Z,3.54
2023-01-26T07:05:23.923Z,3.47
2023-01-26T07:06:55.563Z,3.48
2023-01-26T07:08:27.554Z,3.45
2023-01-26T07:09:59.111Z,3.42
2023-01-26T07:11:32.332Z,3.43
2023-01-26T07:13:05.927Z,3.49
2023-01-26T07:14:37.637Z,3.59
2023-01-26T07:16:10.979Z,3.63
2023-01-26T07:17:42.488Z,3.58
2023-01-26T07:19:13.947Z,3.56
2023-01-26T07:20:45.479Z,3.60
2023-01-26T07:22:17.018Z,3.63
2023-01-26T07:23:49.072Z,3.60
2023-01-26T07:25:21.653Z,3.56
2023-01-26T07:26:53.160Z,3.48
2023-01-26T07:28:26.181Z,3.43
2023-01-26T07:29:57.694Z,3.43
2023-01-26T07:31:29.281Z,3.42
2023-01-26T07:33:00.986Z,3.50
2023-01-26T07:34:32.492Z,3.56
2023-01-26T07:36:04.281Z,3.54
2023-01-26T07:37:35.791Z,3.52
2023-01-26T07:39:08.644Z,3.47
2023-01-26T07:40:40.395Z,3.42
2023-01-26T07:42:13.187Z,3.36
2023-01-26T07:43:54.624Z,3.39
2023-01-26T07:45:26.203Z,3.41
2023-01-26T07:46:57.930Z,3.40
2023-01-26T07:48:29.852Z,3.45
2023-01-26T07:50:01.519Z,3.49
2023-01-26T07:51:33.119Z,3.54
2023-01-26T07:53:04.598Z,3.56
2023-01-26T07:54:36.371Z,3.52
2023-01-26T07:56:09.100Z,3.47
2023-01-26T07:57:40.765Z,3.34
2023-01-26T07:59:13.662Z,3.28
2023-01-26T08:00:47.397Z,3.27
2023-01-26T08:02:18.906Z,3.22
2023-01-26T08:03:51.011Z,3.13
2023-01-26T08:05:22.563Z,3.09
2023-01-26T08:06:54.235Z,3.07
2023-01-26T08:08:26.474Z,3.11
2023-01-26T08:09:59.160Z,3.16
2023-01-26T08:11:30.748Z,3.14
2023-01-26T08:13:02.339Z,3.15
2023-01-26T08:14:46.388Z,3.18
2023-01-26T08:16:18.690Z,3.27
2023-01-26T08:17:50.217Z,3.34
2023-01-26T08:19:21.745Z,3.37
2023-01-26T08:20:53.914Z,3.37
2023-01-26T08:22:25.518Z,3.41
2023-01-26T08:24:01.742Z,3.48
2023-01-26T08:25:34.106Z,3.55
2023-01-26T08:27:05.723Z,3.56
2023-01-26T08:28:37.213Z,3.53
2023-01-26T08:30:11.495Z,3.49
2023-01-26T08:31:43.198Z,3.45
2023-01-26T08:33:14.839Z,3.35
2023-01-26T08:34:46.466Z,3.36
2023-01-26T08:36:21.734Z,3.37
2023-01-26T08:37:53.868Z,3.39
2023-01-26T08:39:25.417Z,3.43
2023-01-26T08:40:57.093Z,3.34
2023-01-26T08:42:28.883Z,3.36
2023-01-26T08:44:00.502Z,3.34
2023-01-26T08:45:33.475Z,3.38
2023-01-26T08:47:05.019Z,3.41
2023-01-26T08:48:37.336Z,3.46
2023-01-26T08:50:09.531Z,3.51
2023-01-26T08:51:41.227Z,3.52
2023-01-26T08:53:12.799Z,3.43
2023-01-26T08:54:44.363Z,3.37
2023-01-26T08:56:15.976Z,3.35
2023-01-26T08:57:51.683Z,3.41
2023-01-26T08:59:23.222Z,3.43
2023-01-26T09:00:56.146Z,3.45
2023-01-26T09:02:27.956Z,3.44
2023-01-26T09:04:00.153Z,3.44
2023-01-26T09:05:32.613Z,3.46
2023-01-26T09:07:04.238Z,3.42
2023-01-26T09:08:36.080Z,3.42
2023-01-26T09:10:09.823Z,3.39
2023-01-26T09:11:41.533Z,3.45
2023-01-26T09:13:13.148Z,3.45
2023-01-26T09:14:44.646Z,3.44
2023-01-26T09:16:19.305Z,3.41
2023-01-26T09:17:51.365Z,3.29
2023-01-26T09:19:23.191Z,3.26
2023-01-26T09:20:55.823Z,3.29
2023-01-26T09:22:27.375Z,3.35
2023-01-26T09:23:59.250Z,3.39
2023-01-26T09:25:30.949Z,3.46
2023-01-26T09:27:02.504Z,3.55
2023-01-26T09:28:34.050Z,3.62
2023-01-26T09:30:06.710Z,3.68
2023-01-26T09:31:40.492Z,3.70
2023-01-26T09:33:12.103Z,3.70
2023-01-26T09:34:45.752Z,3.65
2023-01-26T09:36:17.886Z,3.59
2023-01-26T09:37:49.525Z,3.54
2023-01-26T09:39:21.075Z,3.58
2023-01-26T09:40:59.477Z,3.60
2023-01-26T09:42:49.202Z,3.61
2023-01-26T09:44:23.740Z,3.69
2023-01-26T09:46:01.135Z,3.72
2023-01-26T09:47:42.090Z,3.74
2023-01-26T09:49:17.516Z,3.79
2023-01-26T09:50:52.354Z,3.92
2023-01-26T09:52:26.606Z,3.96
2023-01-26T09:54:00.644Z,4.01
2023-01-26T09:55:32.167Z,4.09
2023-01-26T09:57:11.000Z,4.06
2023-01-26T09:58:45.157Z,4.06
2023-01-26T10:00:21.005Z,4.12
2023-01-26T10:01:57.235Z,4.23
2023-01-26T10:03:33.280Z,4.31
2023-01-26T10:05:14.365Z,4.38
2023-01-26T10:06:46.275Z,4.34
2023-01-26T10:08:26.890Z,4.38
2023-01-26T10:09:58.710Z,4.41
2023-01-26T10:11:32.280Z,4.44
2023-01-26T10:13:04.312Z,4.43
2023-01-26T10:14:40.536Z,4.39
2023-01-26T10:16:13.224Z,4.29
2023-01-26T10:17:45.789Z,4.15
2023-01-26T10:19:21.894Z,4.09
2023-01-26T10:20:54.963Z,4.04
2023-01-26T10:22:31.541Z,4.00
2023-01-26T10:24:03.370Z,3.93
2023-01-26T10:25:35.846Z,3.85
2023-01-26T10:27:10.392Z,3.78
2023-01-26T10:28:43.149Z,3.66
2023-01-26T10:30:16.351Z,3.65
2023-01-26T10:31:47.997Z,3.67
2023-01-26T10:33:23.858Z,3.67
2023-01-26T10:34:57.094Z,3.69
2023-01-26T10:36:29.736Z,3.78
2023-01-26T10:38:02.951Z,3.80
2023-01-26T10:39:34.499Z,3.83
2023-01-26T10:41:07.442Z,3.82
2023-01-26T10:42:39.538Z,3.80
2023-01-26T10:44:22.469Z,3.81
2023-01-26T10:45:54.012Z,3.73
2023-01-26T10:47:25.952Z,3.76
2023-01-26T10:49:00.916Z,3.86
2023-01-26T10:50:33.951Z,3.92
2023-01-26T10:52:06.739Z,3.96
2023-01-26T10:53:38.292Z,4.03
2023-01-26T10:55:10.961Z,4.02
2023-01-26T10:56:45.888Z,4.06
2023-01-26T10:58:38.377Z,4.09
2023-01-26T11:00:21.154Z,4.13
2023-01-26T11:01:54.229Z,4.16
2023-01-26T11:03:27.289Z,4.22
2023-01-26T11:05:03.261Z,4.30
2023-01-26T11:06:36.227Z,4.30
2023-01-26T11:08:30.414Z,4.36
2023-01-26T11:10:16.694Z,4.36
2023-01-26T11:11:55.874Z,4.31
2023-01-26T11:13:27.472Z,4.24
2023-01-26T11:15:00.370Z,4.21
2023-01-26T11:16:32.336Z,4.21
2023-01-26T11:18:10.530Z,4.23
2023-01-26T11:20:02.896Z,4.33
2023-01-26T11:21:39.143Z,4.43
2023-01-26T11:23:14.957Z,4.57
2023-01-26T11:24:50.465Z,4.61
2023-01-26T11:26:39.860Z,4.53
2023-01-26T11:28:20.998Z,4.37
2023-01-26T11:30:07.423Z,4.21
2023-01-26T11:31:46.142Z,4.00
2023-01-26T11:33:20.832Z,3.92
2023-01-26T11:34:58.730Z,3.84
2023-01-26T11:36:34.639Z,3.87
2023-01-26T11:38:15.352Z,3.76
2023-01-26T11:39:53.221Z,3.74
2023-01-26T11:41:32.432Z,3.70
2023-01-26T11:43:12.236Z,3.59
2023-01-26T11:44:49.550Z,3.55
2023-01-26T11:46:29.051Z,3.55
2023-01-26T11:48:08.259Z,3.55
2023-01-26T11:50:04.453Z,3.42
2023-01-26T11:51:45.093Z,3.46
2023-01-26T11:53:40.614Z,3.59
2023-01-26T11:55:24.385Z,3.73
2023-01-26T11:57:04.490Z,3.81
2023-01-26T11:58:39.265Z,3.92
2023-01-26T12:00:29.138Z,3.97
2023-01-26T12:02:04.499Z,4.00
2023-01-26T12:03:40.320Z,3.96
2023-01-26T12:05:15.286Z,3.96
2023-01-26T12:06:49.022Z,3.94
2023-01-26T12:08:23.204Z,3.96
2023-01-26T12:09:54.808Z,3.92
2023-01-26T12:11:31.087Z,3.86
2023-01-26T12:13:06.685Z,3.82
2023-01-26T12:14:42.223Z,3.78
2023-01-26T12:16:18.273Z,3.72
2023-01-26T12:17:58.082Z,3.69
2023-01-26T12:19:36.810Z,3.67
2023-01-26T12:21:10.538Z,3.72
2023-01-26T12:22:45.348Z,3.80
2023-01-26T12:24:48.337Z,3.85
2023-01-26T12:26:14.076Z,3.84
2023-01-26T12:27:50.972Z,3.82
2023-01-26T12:29:25.416Z,3.77
2023-01-26T12:31:01.086Z,3.78
2023-01-26T12:32:33.283Z,3.78
2023-01-26T12:34:10.745Z,3.81
2023-01-26T12:35:59.677Z,3.90
2023-01-26T12:37:38.070Z,3.87
2023-01-26T12:39:12.714Z,3.96
2023-01-26T12:40:49.396Z,4.02
2023-01-26T12:42:27.533Z,4.11
2023-01-26T12:44:09.016Z,4.17
2023-01-26T12:45:42.710Z,4.33
2023-01-26T12:47:18.432Z,4.37
2023-01-26T12:48:53.515Z,4.41
2023-01-26T12:50:27.557Z,4.35
2023-01-26T12:52:02.755Z,4.30
2023-01-26T12:53:37.951Z,4.20
2023-01-26T12:55:14.589Z,3.95
2023-01-26T12:56:48.429Z,3.93
2023-01-26T12:58:22.863Z,3.94
2023-01-26T13:00:02.653Z,3.85
2023-01-26T13:01:38.798Z,3.78
2023-01-26T13:03:15.605Z,3.75
2023-01-26T13:04:49.202Z,3.79
2023-01-26T13:06:22.226Z,3.77
2023-01-26T13:07:53.755Z,3.76
2023-01-26T13:09:26.112Z,3.82
2023-01-26T13:10:58.627Z,3.85
2023-01-26T13:12:45.773Z,3.76
2023-01-26T13:14:31.219Z,3.80
2023-01-26T13:16:22.134Z,3.82
2023-01-26T13:18:00.432Z,3.88
2023-01-26T13:19:35.962Z,3.93
2023-01-26T13:21:09.052Z,3.96
2023-01-26T13:22:41.613Z,4.00
2023-01-26T13:24:34.109Z,4.05
2023-01-26T13:26:16.111Z,4.11
2023-01-26T13:27:55.769Z,4.01
2023-01-26T13:29:34.135Z,3.99
2023-01-26T13:31:06.616Z,4.02
2023-01-26T13:32:55.972Z,4.09
2023-01-26T13:34:32.237Z,4.19
2023-01-26T13:36:06.060Z,4.21
2023-01-26T13:37:46.500Z,4.15
2023-01-26T13:39:23.304Z,4.13
2023-01-26T13:40:55.019Z,4.11
2023-01-26T13:42:29.663Z,4.09
2023-01-26T13:44:07.709Z,4.03
2023-01-26T13:45:44.103Z,4.02
2023-01-26T13:47:20.617Z,4.03
2023-01-26T13:48:53.765Z,4.06
2023-01-26T13:50:31.178Z,4.07
2023-01-26T13:52:02.795Z,4.12
2023-01-26T13:53:36.172Z,4.10
2023-01-26T13:55:19.932Z,3.98
2023-01-26T13:57:01.773Z,4.05
2023-01-26T13:58:34.076Z,4.10
2023-01-26T14:00:11.233Z,4.16
2023-01-26T14:01:44.316Z,4.22
2023-01-26T14:03:20.950Z,4.22
2023-01-26T14:04:55.327Z,4.31
2023-01-26T14:06:28.528Z,4.33
2023-01-26T14:08:00.209Z,4.32
2023-01-26T14:09:33.410Z,4.33
2023-01-26T14:11:15.205Z,4.31
2023-01-26T14:12:49.452Z,4.31
2023-01-26T14:14:24.745Z,4.37
2023-01-26T14:15:57.035Z,4.43
2023-01-26T14:17:30.152Z,4.43
2023-01-26T14:19:05.777Z,4.47
2023-01-26T14:20:41.806Z,4.46
2023-01-26T14:22:15.606Z,4.46
2023-01-26T14:23:54.459Z,4.50
2023-01-26T14:25:26.140Z,4.53
2023-01-26T14:26:57.982Z,4.58
2023-01-26T14:28:31.343Z,4.69
2023-01-26T14:30:09.136Z,4.77
2023-01-26T14:31:40.976Z,4.82
2023-01-26T14:33:13.421Z,4.78
2023-01-26T14:34:51.865Z,4.68
2023-01-26T14:36:24.113Z,4.68
2023-01-26T14:38:06.380Z,4.77
2023-01-26T14:39:37.984Z,4.83
2023-01-26T14:41:13.363Z,4.89
2023-01-26T14:42:45.459Z,4.93
2023-01-26T14:44:17.162Z,4.92
2023-01-26T14:45:51.877Z,4.96
2023-01-26T14:47:27.029Z,5.01
2023-01-26T14:49:01.634Z,5.09
2023-01-26T14:50:34.282Z,5.18
2023-01-26T14:52:05.862Z,5.23
2023-01-26T14:53:38.901Z,5.30
2023-01-26T14:55:14.776Z,5.37
2023-01-26T14:56:47.626Z,5.42
2023-01-26T14:58:21.290Z,5.46
2023-01-26T14:59:54.160Z,5.47
2023-01-26T15:01:26.293Z,5.50
2023-01-26T15:02:58.756Z,5.55
2023-01-26T15:04:35.385Z,5.60
2023-01-26T15:06:17.468Z,5.64
2023-01-26T15:07:51.119Z,5.61
2023-01-26T15:09:26.002Z,5.57
2023-01-26T15:11:18.682Z,5.54
2023-01-26T15:12:56.233Z,5.42
2023-01-26T15:14:35.122Z,5.42
2023-01-26T15:16:11.965Z,5.45
2023-01-26T15:17:43.507Z,5.45
2023-01-26T15:19:22.217Z,5.47
2023-01-26T15:21:02.239Z,5.55
2023-01-26T15:22:34.336Z,5.64
2023-01-26T15:24:06.477Z,5.73
2023-01-26T15:25:39.695Z,5.74
2023-01-26T15:27:12.146Z,5.79
2023-01-26T15:28:43.733Z,5.86
2023-01-26T15:30:16.519Z,5.91
2023-01-26T15:31:51.981Z,5.96
2023-01-26T15:33:37.639Z,6.00
2023-01-26T15:35:19.797Z,6.00
2023-01-26T15:36:51.731Z,6.05
2023-01-26T15:38:23.291Z,6.10
2023-01-26T15:39:54.827Z,6.13
2023-01-26T15:41:28.147Z,6.11
2023-01-26T15:43:10.509Z,6.11
2023-01-26T15:44:42.434Z,6.09
2023-01-26T15:46:13.992Z,6.15
2023-01-26T15:47:45.505Z,6.21
2023-01-26T15:49:19.937Z,6.27
2023-01-26T15:50:51.570Z,6.35
2023-01-26T15:52:25.511Z,6.38
2023-01-26T15:53:57.204Z,6.42
2023-01-26T15:55:30.986Z,6.47
2023-01-26T15:57:03.869Z,6.54
2023-01-26T15:58:36.715Z,6.59
2023-01-26T16:00:13.002Z,6.63
2023-01-26T16:01:45.004Z,6.69
2023-01-26T16:03:18.044Z,6.68
2023-01-26T16:04:49.809Z,6.68
2023-01-26T16:06:23.486Z,6.71
2023-01-26T16:07:55.067Z,6.68
2023-01-26T16:09:26.736Z,6.70
2023-01-26T16:10:59.516Z,6.69
2023-01-26T16:12:32.647Z,6.63
2023-01-26T16:14:04.774Z,6.53
2023-01-26T16:15:39.350Z,6.44
2023-01-26T16:17:14.786Z,6.30
2023-01-26T16:18:48.965Z,6.18
2023-01-26T16:20:20.525Z,6.09
2023-01-26T16:21:52.082Z,6.01
2023-01-26T16:23:24.671Z,6.00
2023-01-26T16:24:56.221Z,5.99
2023-01-26T16:26:28.327Z,5.95
2023-01-26T16:28:01.250Z,5.89
2023-01-26T16:29:33.795Z,5.83
2023-01-26T16:31:12.301Z,5.84
2023-01-26T16:32:44.922Z,5.88
2023-01-26T16:34:16.706Z,5.89
2023-01-26T16:35:48.330Z,5.87
2023-01-26T16:37:19.940Z,5.86
2023-01-26T16:38:51.404Z,5.88
2023-01-26T16:40:23.028Z,5.88
2023-01-26T16:41:56.818Z,5.90
2023-01-26T16:43:30.410Z,5.93
2023-01-26T16:45:02.003Z,5.97
2023-01-26T16:46:33.777Z,5.95
2023-01-26T16:48:11.326Z,5.89
2023-01-26T16:49:42.894Z,5.87
2023-01-26T16:51:16.509Z,5.89
2023-01-26T16:52:48.281Z,5.91
2023-01-26T16:54:19.785Z,5.95
2023-01-26T16:55:51.575Z,6.00
2023-01-26T16:57:23.258Z,6.01
2023-01-26T16:58:56.161Z,6.05
2023-01-26T17:00:27.645Z,6.03
2023-01-26T17:01:59.668Z,6.05
2023-01-26T17:03:31.424Z,6.08
2023-01-26T17:05:03.038Z,6.09
2023-01-26T17:06:34.625Z,6.11
2023-01-26T17:08:06.620Z,6.18
2023-01-26T17:09:38.148Z,6.26
2023-01-26T17:11:15.025Z,6.32
2023-01-26T17:12:46.631Z,6.38
2023-01-26T17:14:19.637Z,6.41
2023-01-26T17:15:51.164Z,6.48
2023-01-26T17:17:22.704Z,6.54
2023-01-26T17:18:54.203Z,6.58
2023-01-26T17:20:26.180Z,6.64
2023-01-26T17:21:57.993Z,6.68
2023-01-26T17:23:29.604Z,6.71
2023-01-26T17:25:01.127Z,6.76
2023-01-26T17:26:32.641Z,6.79
2023-01-26T17:28:04.246Z,6.80
2023-01-26T17:29:37.243Z,6.82
2023-01-26T17:31:09.948Z,6.82
2023-01-26T17:32:41.818Z,6.83
2023-01-26T17:34:13.308Z,6.80
2023-01-26T17:35:44.937Z,6.73
2023-01-26T17:37:16.497Z,6.69
2023-01-26T17:38:48.413Z,6.65
2023-01-26T17:40:19.988Z,6.67
2023-01-26T17:41:51.535Z,6.69
2023-01-26T17:43:23.480Z,6.70
2023-01-26T17:44:57.910Z,6.69
2023-01-26T17:46:29.667Z,6.68
2023-01-26T17:48:01.261Z,6.62
2023-01-26T17:49:32.807Z,6.55
2023-01-26T17:51:07.761Z,6.44
2023-01-26T17:52:39.316Z,6.38
2023-01-26T17:54:10.839Z,6.38
2023-01-26T17:55:42.394Z,6.40
2023-01-26T17:57:15.075Z,6.41
2023-01-26T17:58:50.677Z,6.40
2023-01-26T18:00:24.027Z,6.38
2023-01-26T18:01:55.683Z,6.39
2023-01-26T18:03:27.373Z,6.34
2023-01-26T18:04:59.016Z,6.32
2023-01-26T18:06:30.837Z,6.28
2023-01-26T18:08:02.398Z,6.30
2023-01-26T18:09:33.930Z,6.31
2023-01-26T18:11:06.252Z,6.38
2023-01-26T18:12:37.782Z,6.43
2023-01-26T18:14:09.328Z,6.46
2023-01-26T18:15:43.254Z,6.48
2023-01-26T18:17:14.792Z,6.45
2023-01-26T18:18:46.810Z,6.45
2023-01-26T18:20:18.380Z,6.42
2023-01-26T18:21:51.198Z,6.44
2023-01-26T18:23:23.360Z,6.44
2023-01-26T18:24:54.865Z,6.43
2023-01-26T18:26:27.443Z,6.43
2023-01-26T18:27:58.933Z,6.40
2023-01-26T18:29:30.694Z,6.43
2023-01-26T18:31:09.104Z,6.42
2023-01-26T18:32:40.933Z,6.47
2023-01-26T18:34:12.599Z,6.46
2023-01-26T18:35:44.100Z,6.45
2023-01-26T18:37:15.887Z,6.38
2023-01-26T18:38:56.552Z,6.36
2023-01-26T18:40:28.519Z,6.33
2023-01-26T18:42:00.116Z,6.31
2023-01-26T18:43:32.736Z,6.31
2023-01-26T18:45:04.682Z,6.30
2023-01-26T18:46:37.603Z,6.25
2023-01-26T18:48:09.114Z,6.23
2023-01-26T18:49:40.643Z,6.22
2023-01-26T18:51:12.461Z,6.25
2023-01-26T18:52:43.971Z,6.21
2023-01-26T18:54:16.630Z,6.21
2023-01-26T18:55:48.353Z,6.25
2023-01-26T18:57:20.041Z,6.30
2023-01-26T18:58:51.696Z,6.36
2023-01-26T19:00:23.526Z,6.42
2023-01-26T19:01:56.454Z,6.44
2023-01-26T19:03:28.178Z,6.44
2023-01-26T19:05:00.035Z,6.48
2023-01-26T19:06:32.611Z,6.55
2023-01-26T19:08:10.316Z,6.59
2023-01-26T19:09:41.863Z,6.68
2023-01-26T19:11:14.462Z,6.73
2023-01-26T19:12:48.529Z,6.71
2023-01-26T19:14:20.023Z,6.74
2023-01-26T19:15:51.620Z,6.82
2023-01-26T19:17:24.592Z,6.87
2023-01-26T19:18:56.256Z,6.83
2023-01-26T19:20:27.847Z,6.84
2023-01-26T19:21:59.445Z,6.83
2023-01-26T19:23:31.391Z,6.86
2023-01-26T19:25:03.025Z,6.89
2023-01-26T19:26:34.872Z,6.92
2023-01-26T19:28:06.452Z,6.94
2023-01-26T19:29:37.947Z,6.92
2023-01-26T19:31:10.051Z,6.96
2023-01-26T19:33:02.943Z,6.93
2023-01-26T19:34:35.079Z,6.89
2023-01-26T19:36:07.936Z,6.88
2023-01-26T19:37:39.474Z,6.91
2023-01-26T19:39:11.469Z,6.96
2023-01-26T19:40:43.943Z,7.01
2023-01-26T19:42:15.532Z,7.05
2023-01-26T19:43:48.028Z,7.05
2023-01-26T19:45:19.567Z,7.08
2023-01-26T19:46:51.414Z,7.12
2023-01-26T19:48:25.375Z,7.18
2023-01-26T19:49:57.281Z,7.19
2023-01-26T19:51:29.361Z,7.15
2023-01-26T19:53:00.975Z,7.11
2023-01-26T19:54:32.458Z,7.06
2023-01-26T19:56:08.217Z,7.02
2023-01-26T19:57:39.824Z,6.98
2023-01-26T19:59:11.853Z,6.97
2023-01-26T20:00:43.385Z,6.86
2023-01-26T20:02:15.001Z,6.81
2023-01-26T20:03:50.655Z,6.76
2023-01-26T20:05:22.233Z,6.69
2023-01-26T20:06:53.857Z,6.72
2023-01-26T20:08:26.253Z,6.70
2023-01-26T20:09:57.796Z,6.73
2023-01-26T20:11:29.718Z,6.77
2023-01-26T20:13:01.348Z,6.80
2023-01-26T20:14:33.837Z,6.87
2023-01-26T20:16:08.731Z,6.92
2023-01-26T20:17:40.390Z,6.98
2023-01-26T20:19:13.756Z,7.05
2023-01-26T20:20:48.631Z,7.12
2023-01-26T20:22:20.211Z,7.18
2023-01-26T20:23:55.263Z,7.21
2023-01-26T20:25:28.651Z,7.21
2023-01-26T20:27:00.200Z,7.18
2023-01-26T20:28:31.780Z,7.15
2023-01-26T20:30:03.899Z,7.12
2023-01-26T20:31:35.488Z,7.08
2023-01-26T20:33:07.675Z,7.07
2023-01-26T20:34:41.142Z,7.06
2023-01-26T20:36:13.320Z,7.10
2023-01-26T20:37:44.866Z,7.11
2023-01-26T20:39:23.789Z,7.11
2023-01-26T20:40:55.304Z,7.14
2023-01-26T20:42:27.551Z,7.14
2023-01-26T20:44:01.956Z,7.20
2023-01-26T20:45:33.704Z,7.24
2023-01-26T20:47:05.256Z,7.24
2023-01-26T20:48:36.848Z,7.27
2023-01-26T20:50:10.531Z,7.32
2023-01-26T20:51:43.225Z,7.37
2023-01-26T20:53:14.798Z,7.42
2023-01-26T20:54:46.282Z,7.49
2023-01-26T20:56:19.830Z,7.56
2023-01-26T20:57:51.661Z,7.62
2023-01-26T20:59:23.200Z,7.63
2023-01-26T21:01:02.220Z,7.61
2023-01-26T21:02:33.760Z,7.61